Wishart, Canada
Current Conditions -  °F | °C
As of 7:00 PM on Friday 24 Oct 2014 (Local Time) from CYQV Reporting Station
Clear Clear  
Wind Chill: 41°   Ceiling: Unl
Heat Index: 46°   Visibility: 9mi
Dew Point: 30°   Wind: 13mph
Humidity: 53%   Direction: 280°W
Pressure: 29.83"   Gusts: NA
Location:  51.55°N, 103.98°W
Report Text: CYQV 250100Z AUTO 28011KT 9SM CLR 08/M01 A2983 RMK SLP116
Loading
Personal Weather Stations






























Interactive Weather Map
Tropical Storm Tracking
New forecast layout! Learn more

10-Day Weather Forecast

Advertisements
Track Severe Weather on mobile